sensor_id;sensor_type;location;lat;lon;timestamp;P1;durP1;ratioP1;P2;durP2;ratioP2
77051;SDS011;65980;44.898;8.602;2023-01-29T00:09:13;42.88;;;18.60;;
77051;SDS011;65980;44.898;8.602;2023-01-29T00:13:06;50.38;;;20.05;;
77051;SDS011;65980;44.898;8.602;2023-01-29T00:16:23;49.75;;;21.38;;
77051;SDS011;65980;44.898;8.602;2023-01-29T00:19:36;45.47;;;19.77;;
77051;SDS011;65980;44.898;8.602;2023-01-29T00:30:51;54.10;;;20.90;;
77051;SDS011;65980;44.898;8.602;2023-01-29T00:44:20;46.88;;;20.48;;
77051;SDS011;65980;44.898;8.602;2023-01-29T00:48:32;44.58;;;20.05;;
77051;SDS011;65980;44.898;8.602;2023-01-29T00:52:15;47.00;;;20.65;;
77051;SDS011;65980;44.898;8.602;2023-01-29T00:55:32;57.97;;;21.63;;
77051;SDS011;65980;44.898;8.602;2023-01-29T01:02:30;46.38;;;21.42;;
77051;SDS011;65980;44.898;8.602;2023-01-29T01:06:03;52.65;;;22.10;;
77051;SDS011;65980;44.898;8.602;2023-01-29T01:09:29;58.47;;;25.80;;
77051;SDS011;65980;44.898;8.602;2023-01-29T01:17:04;63.85;;;22.60;;
77051;SDS011;65980;44.898;8.602;2023-01-29T01:20:18;54.47;;;23.27;;
77051;SDS011;65980;44.898;8.602;2023-01-29T01:23:28;56.22;;;24.77;;
77051;SDS011;65980;44.898;8.602;2023-01-29T01:26:32;63.88;;;23.50;;
77051;SDS011;65980;44.898;8.602;2023-01-29T01:29:37;60.38;;;23.00;;
77051;SDS011;65980;44.898;8.602;2023-01-29T01:33:04;61.47;;;25.60;;
77051;SDS011;65980;44.898;8.602;2023-01-29T01:36:14;66.80;;;24.50;;
77051;SDS011;65980;44.898;8.602;2023-01-29T01:39:24;61.83;;;24.85;;
77051;SDS011;65980;44.898;8.602;2023-01-29T01:42:30;59.97;;;25.23;;
77051;SDS011;65980;44.898;8.602;2023-01-29T01:45:36;59.67;;;23.17;;
77051;SDS011;65980;44.898;8.602;2023-01-29T01:48:41;61.65;;;25.60;;
77051;SDS011;65980;44.898;8.602;2023-01-29T01:51:57;53.92;;;22.17;;
77051;SDS011;65980;44.898;8.602;2023-01-29T01:55:13;65.30;;;24.83;;
77051;SDS011;65980;44.898;8.602;2023-01-29T01:58:23;56.75;;;26.25;;
77051;SDS011;65980;44.898;8.602;2023-01-29T02:01:41;60.50;;;24.83;;
77051;SDS011;65980;44.898;8.602;2023-01-29T02:04:47;62.38;;;27.55;;
77051;SDS011;65980;44.898;8.602;2023-01-29T02:08:16;65.68;;;26.63;;
77051;SDS011;65980;44.898;8.602;2023-01-29T02:11:41;62.13;;;25.15;;
77051;SDS011;65980;44.898;8.602;2023-01-29T02:14:45;53.25;;;22.92;;
77051;SDS011;65980;44.898;8.602;2023-01-29T02:17:50;65.07;;;25.42;;
77051;SDS011;65980;44.898;8.602;2023-01-29T02:28:57;60.97;;;25.38;;
77051;SDS011;65980;44.898;8.602;2023-01-29T02:39:48;64.20;;;26.20;;
77051;SDS011;65980;44.898;8.602;2023-01-29T02:43:02;62.60;;;26.63;;
77051;SDS011;65980;44.898;8.602;2023-01-29T02:46:24;61.30;;;23.95;;
77051;SDS011;65980;44.898;8.602;2023-01-29T02:53:07;58.42;;;24.23;;
77051;SDS011;65980;44.898;8.602;2023-01-29T02:56:33;62.97;;;26.85;;
77051;SDS011;65980;44.898;8.602;2023-01-29T02:59:53;71.32;;;26.92;;
77051;SDS011;65980;44.898;8.602;2023-01-29T03:03:13;64.22;;;27.95;;
77051;SDS011;65980;44.898;8.602;2023-01-29T03:09:33;64.15;;;27.10;;
77051;SDS011;65980;44.898;8.602;2023-01-29T03:12:45;56.05;;;23.63;;
77051;SDS011;65980;44.898;8.602;2023-01-29T03:15:58;62.47;;;24.77;;
77051;SDS011;65980;44.898;8.602;2023-01-29T03:23:09;61.58;;;24.67;;
77051;SDS011;65980;44.898;8.602;2023-01-29T03:26:22;57.70;;;23.98;;
77051;SDS011;65980;44.898;8.602;2023-01-29T03:29:48;55.35;;;23.48;;
77051;SDS011;65980;44.898;8.602;2023-01-29T03:34:08;51.80;;;22.75;;
77051;SDS011;65980;44.898;8.602;2023-01-29T03:37:21;61.50;;;24.40;;
77051;SDS011;65980;44.898;8.602;2023-01-29T03:40:45;63.58;;;24.98;;
77051;SDS011;65980;44.898;8.602;2023-01-29T03:44:09;62.00;;;24.10;;
77051;SDS011;65980;44.898;8.602;2023-01-29T03:47:33;70.63;;;24.25;;
77051;SDS011;65980;44.898;8.602;2023-01-29T03:50:52;60.85;;;24.17;;
77051;SDS011;65980;44.898;8.602;2023-01-29T03:54:36;51.92;;;21.98;;
77051;SDS011;65980;44.898;8.602;2023-01-29T04:04:55;56.38;;;24.73;;
77051;SDS011;65980;44.898;8.602;2023-01-29T04:08:04;52.50;;;22.38;;
77051;SDS011;65980;44.898;8.602;2023-01-29T04:11:19;55.47;;;22.30;;
77051;SDS011;65980;44.898;8.602;2023-01-29T04:14:26;56.47;;;23.88;;
77051;SDS011;65980;44.898;8.602;2023-01-29T04:17:33;61.45;;;23.25;;
77051;SDS011;65980;44.898;8.602;2023-01-29T04:21:06;55.58;;;21.38;;
77051;SDS011;65980;44.898;8.602;2023-01-29T04:24:11;59.70;;;25.38;;
77051;SDS011;65980;44.898;8.602;2023-01-29T04:31:04;58.97;;;24.35;;
77051;SDS011;65980;44.898;8.602;2023-01-29T04:35:16;61.67;;;25.75;;
77051;SDS011;65980;44.898;8.602;2023-01-29T04:41:15;58.00;;;22.40;;
77051;SDS011;65980;44.898;8.602;2023-01-29T04:51:03;57.83;;;21.63;;
77051;SDS011;65980;44.898;8.602;2023-01-29T04:54:15;71.70;;;26.63;;
77051;SDS011;65980;44.898;8.602;2023-01-29T04:57:28;58.20;;;22.73;;
77051;SDS011;65980;44.898;8.602;2023-01-29T05:00:43;55.60;;;22.67;;
77051;SDS011;65980;44.898;8.602;2023-01-29T05:03:57;51.35;;;21.63;;
77051;SDS011;65980;44.898;8.602;2023-01-29T05:07:12;53.78;;;21.38;;
77051;SDS011;65980;44.898;8.602;2023-01-29T05:10:21;51.97;;;22.08;;
77051;SDS011;65980;44.898;8.602;2023-01-29T05:13:29;61.25;;;23.52;;
77051;SDS011;65980;44.898;8.602;2023-01-29T05:16:37;54.35;;;22.15;;
77051;SDS011;65980;44.898;8.602;2023-01-29T05:19:46;55.67;;;22.73;;
77051;SDS011;65980;44.898;8.602;2023-01-29T05:22:52;55.75;;;24.00;;
77051;SDS011;65980;44.898;8.602;2023-01-29T05:25:57;59.38;;;23.75;;
77051;SDS011;65980;44.898;8.602;2023-01-29T05:29:02;58.17;;;23.70;;
77051;SDS011;65980;44.898;8.602;2023-01-29T05:32:10;60.10;;;23.48;;
77051;SDS011;65980;44.898;8.602;2023-01-29T05:35:15;61.47;;;23.92;;
77051;SDS011;65980;44.898;8.602;2023-01-29T05:38:20;59.13;;;24.58;;
77051;SDS011;65980;44.898;8.602;2023-01-29T05:41:25;68.93;;;27.05;;
77051;SDS011;65980;44.898;8.602;2023-01-29T05:44:30;52.67;;;21.52;;
77051;SDS011;65980;44.898;8.602;2023-01-29T05:47:34;64.85;;;25.35;;
77051;SDS011;65980;44.898;8.602;2023-01-29T05:50:40;56.17;;;20.73;;
77051;SDS011;65980;44.898;8.602;2023-01-29T05:53:46;71.20;;;24.25;;
77051;SDS011;65980;44.898;8.602;2023-01-29T05:56:53;69.93;;;28.10;;
77051;SDS011;65980;44.898;8.602;2023-01-29T05:59:58;62.50;;;24.52;;
77051;SDS011;65980;44.898;8.602;2023-01-29T06:03:03;60.85;;;23.63;;
77051;SDS011;65980;44.898;8.602;2023-01-29T06:06:08;57.63;;;22.40;;
77051;SDS011;65980;44.898;8.602;2023-01-29T06:09:13;69.10;;;24.95;;
77051;SDS011;65980;44.898;8.602;2023-01-29T06:12:19;63.47;;;23.60;;
77051;SDS011;65980;44.898;8.602;2023-01-29T06:15:30;59.67;;;24.60;;
77051;SDS011;65980;44.898;8.602;2023-01-29T06:18:42;52.92;;;23.25;;
77051;SDS011;65980;44.898;8.602;2023-01-29T06:21:49;60.70;;;24.25;;
77051;SDS011;65980;44.898;8.602;2023-01-29T06:25:09;53.85;;;21.40;;
77051;SDS011;65980;44.898;8.602;2023-01-29T06:28:22;71.60;;;26.60;;
77051;SDS011;65980;44.898;8.602;2023-01-29T06:31:38;60.53;;;21.85;;
77051;SDS011;65980;44.898;8.602;2023-01-29T06:34:52;58.58;;;23.20;;
77051;SDS011;65980;44.898;8.602;2023-01-29T06:38:08;57.17;;;22.58;;
77051;SDS011;65980;44.898;8.602;2023-01-29T06:44:50;53.33;;;20.90;;
77051;SDS011;65980;44.898;8.602;2023-01-29T06:47:55;55.15;;;22.00;;
77051;SDS011;65980;44.898;8.602;2023-01-29T06:51:14;53.03;;;22.77;;
77051;SDS011;65980;44.898;8.602;2023-01-29T06:54:57;47.88;;;20.45;;
77051;SDS011;65980;44.898;8.602;2023-01-29T06:58:42;50.35;;;21.23;;
77051;SDS011;65980;44.898;8.602;2023-01-29T07:02:01;56.25;;;22.88;;
77051;SDS011;65980;44.898;8.602;2023-01-29T07:05:07;58.78;;;23.15;;
77051;SDS011;65980;44.898;8.602;2023-01-29T07:11:42;54.05;;;20.17;;
77051;SDS011;65980;44.898;8.602;2023-01-29T07:14:53;52.22;;;21.27;;
77051;SDS011;65980;44.898;8.602;2023-01-29T07:18:03;61.42;;;23.77;;
77051;SDS011;65980;44.898;8.602;2023-01-29T07:21:32;50.10;;;21.67;;
77051;SDS011;65980;44.898;8.602;2023-01-29T07:24:46;50.47;;;20.38;;
77051;SDS011;65980;44.898;8.602;2023-01-29T07:27:55;63.03;;;22.33;;
77051;SDS011;65980;44.898;8.602;2023-01-29T07:31:04;50.05;;;19.40;;
77051;SDS011;65980;44.898;8.602;2023-01-29T07:34:13;52.10;;;21.63;;
77051;SDS011;65980;44.898;8.602;2023-01-29T07:37:22;62.75;;;21.13;;
77051;SDS011;65980;44.898;8.602;2023-01-29T07:40:34;54.42;;;20.83;;
77051;SDS011;65980;44.898;8.602;2023-01-29T07:43:48;49.33;;;21.55;;
77051;SDS011;65980;44.898;8.602;2023-01-29T07:46:59;57.38;;;22.98;;
77051;SDS011;65980;44.898;8.602;2023-01-29T07:50:04;51.47;;;20.67;;
77051;SDS011;65980;44.898;8.602;2023-01-29T07:53:12;50.83;;;20.48;;
77051;SDS011;65980;44.898;8.602;2023-01-29T07:56:18;51.63;;;21.58;;
77051;SDS011;65980;44.898;8.602;2023-01-29T07:59:26;48.42;;;20.30;;
77051;SDS011;65980;44.898;8.602;2023-01-29T08:02:31;50.13;;;22.15;;
77051;SDS011;65980;44.898;8.602;2023-01-29T08:05:42;47.63;;;19.65;;
77051;SDS011;65980;44.898;8.602;2023-01-29T08:08:47;55.22;;;23.67;;
77051;SDS011;65980;44.898;8.602;2023-01-29T08:11:56;56.10;;;21.55;;
77051;SDS011;65980;44.898;8.602;2023-01-29T08:15:10;52.85;;;23.20;;
77051;SDS011;65980;44.898;8.602;2023-01-29T08:18:25;53.42;;;22.60;;
77051;SDS011;65980;44.898;8.602;2023-01-29T08:21:30;56.78;;;23.00;;
77051;SDS011;65980;44.898;8.602;2023-01-29T08:24:51;53.92;;;23.50;;
77051;SDS011;65980;44.898;8.602;2023-01-29T08:27:59;53.30;;;20.88;;
77051;SDS011;65980;44.898;8.602;2023-01-29T08:31:15;55.25;;;22.00;;
77051;SDS011;65980;44.898;8.602;2023-01-29T08:34:27;47.00;;;20.83;;
77051;SDS011;65980;44.898;8.602;2023-01-29T08:37:47;54.00;;;21.88;;
77051;SDS011;65980;44.898;8.602;2023-01-29T08:40:56;49.50;;;19.83;;
77051;SDS011;65980;44.898;8.602;2023-01-29T08:44:03;52.70;;;22.48;;
77051;SDS011;65980;44.898;8.602;2023-01-29T08:47:11;57.92;;;21.05;;
77051;SDS011;65980;44.898;8.602;2023-01-29T08:50:24;52.95;;;21.35;;
77051;SDS011;65980;44.898;8.602;2023-01-29T08:53:30;55.78;;;22.63;;
77051;SDS011;65980;44.898;8.602;2023-01-29T08:56:35;48.65;;;22.30;;
77051;SDS011;65980;44.898;8.602;2023-01-29T08:59:40;49.40;;;22.73;;
77051;SDS011;65980;44.898;8.602;2023-01-29T09:02:44;50.80;;;22.10;;
77051;SDS011;65980;44.898;8.602;2023-01-29T09:05:48;53.90;;;24.88;;
77051;SDS011;65980;44.898;8.602;2023-01-29T09:08:53;49.97;;;23.50;;
77051;SDS011;65980;44.898;8.602;2023-01-29T09:11:58;53.72;;;22.98;;
77051;SDS011;65980;44.898;8.602;2023-01-29T09:15:03;51.60;;;23.48;;
77051;SDS011;65980;44.898;8.602;2023-01-29T09:18:09;53.55;;;22.67;;
77051;SDS011;65980;44.898;8.602;2023-01-29T09:21:14;46.92;;;21.65;;
77051;SDS011;65980;44.898;8.602;2023-01-29T09:24:27;53.72;;;24.08;;
77051;SDS011;65980;44.898;8.602;2023-01-29T09:27:37;56.00;;;22.67;;
77051;SDS011;65980;44.898;8.602;2023-01-29T09:30:42;54.40;;;25.55;;
77051;SDS011;65980;44.898;8.602;2023-01-29T09:33:49;53.20;;;24.60;;
77051;SDS011;65980;44.898;8.602;2023-01-29T09:36:56;54.90;;;24.58;;
77051;SDS011;65980;44.898;8.602;2023-01-29T09:40:02;56.38;;;25.02;;
77051;SDS011;65980;44.898;8.602;2023-01-29T09:43:20;47.15;;;22.90;;
77051;SDS011;65980;44.898;8.602;2023-01-29T09:46:34;50.40;;;24.70;;
77051;SDS011;65980;44.898;8.602;2023-01-29T09:50:05;78.28;;;43.63;;
77051;SDS011;65980;44.898;8.602;2023-01-29T09:53:20;49.58;;;24.48;;
77051;SDS011;65980;44.898;8.602;2023-01-29T09:56:36;58.90;;;27.88;;
77051;SDS011;65980;44.898;8.602;2023-01-29T09:59:40;51.50;;;25.08;;
77051;SDS011;65980;44.898;8.602;2023-01-29T10:02:52;56.05;;;26.70;;
77051;SDS011;65980;44.898;8.602;2023-01-29T10:06:27;62.33;;;25.85;;
77051;SDS011;65980;44.898;8.602;2023-01-29T10:20:28;55.75;;;26.63;;
77051;SDS011;65980;44.898;8.602;2023-01-29T10:23:45;48.47;;;24.30;;
77051;SDS011;65980;44.898;8.602;2023-01-29T10:26:54;54.13;;;25.15;;
77051;SDS011;65980;44.898;8.602;2023-01-29T10:30:03;54.78;;;26.00;;
77051;SDS011;65980;44.898;8.602;2023-01-29T10:33:17;62.67;;;24.85;;
77051;SDS011;65980;44.898;8.602;2023-01-29T10:36:43;51.97;;;24.40;;
77051;SDS011;65980;44.898;8.602;2023-01-29T10:39:56;53.75;;;25.60;;
77051;SDS011;65980;44.898;8.602;2023-01-29T10:43:05;49.40;;;25.30;;
77051;SDS011;65980;44.898;8.602;2023-01-29T10:46:37;51.85;;;24.98;;
77051;SDS011;65980;44.898;8.602;2023-01-29T10:57:10;49.75;;;23.90;;
77051;SDS011;65980;44.898;8.602;2023-01-29T11:00:09;48.53;;;23.27;;
77051;SDS011;65980;44.898;8.602;2023-01-29T11:04:02;49.33;;;23.85;;
77051;SDS011;65980;44.898;8.602;2023-01-29T11:07:12;48.58;;;24.23;;
77051;SDS011;65980;44.898;8.602;2023-01-29T11:10:19;48.17;;;24.50;;
77051;SDS011;65980;44.898;8.602;2023-01-29T11:13:34;48.28;;;24.63;;
77051;SDS011;65980;44.898;8.602;2023-01-29T11:18:12;48.70;;;25.52;;
77051;SDS011;65980;44.898;8.602;2023-01-29T11:21:17;47.00;;;25.48;;
77051;SDS011;65980;44.898;8.602;2023-01-29T11:24:22;49.08;;;25.33;;
77051;SDS011;65980;44.898;8.602;2023-01-29T11:27:41;48.80;;;25.08;;
77051;SDS011;65980;44.898;8.602;2023-01-29T11:31:01;53.53;;;26.17;;
77051;SDS011;65980;44.898;8.602;2023-01-29T11:34:25;51.83;;;27.88;;
77051;SDS011;65980;44.898;8.602;2023-01-29T11:37:37;47.00;;;24.17;;
77051;SDS011;65980;44.898;8.602;2023-01-29T11:40:44;50.90;;;25.50;;
77051;SDS011;65980;44.898;8.602;2023-01-29T11:43:52;55.03;;;26.95;;
77051;SDS011;65980;44.898;8.602;2023-01-29T11:47:14;53.90;;;27.67;;
77051;SDS011;65980;44.898;8.602;2023-01-29T11:54:57;50.42;;;24.85;;
77051;SDS011;65980;44.898;8.602;2023-01-29T11:58:12;48.42;;;25.00;;
77051;SDS011;65980;44.898;8.602;2023-01-29T12:01:42;50.97;;;26.00;;
77051;SDS011;65980;44.898;8.602;2023-01-29T12:04:47;49.33;;;26.42;;
77051;SDS011;65980;44.898;8.602;2023-01-29T12:07:59;53.22;;;27.45;;
77051;SDS011;65980;44.898;8.602;2023-01-29T12:11:33;46.08;;;26.05;;
77051;SDS011;65980;44.898;8.602;2023-01-29T12:14:45;46.63;;;26.83;;
77051;SDS011;65980;44.898;8.602;2023-01-29T12:26:57;48.17;;;27.40;;
77051;SDS011;65980;44.898;8.602;2023-01-29T12:30:18;50.05;;;27.60;;
77051;SDS011;65980;44.898;8.602;2023-01-29T12:41:04;55.38;;;27.85;;
77051;SDS011;65980;44.898;8.602;2023-01-29T12:44:21;49.00;;;27.30;;
77051;SDS011;65980;44.898;8.602;2023-01-29T12:47:43;46.88;;;25.30;;
77051;SDS011;65980;44.898;8.602;2023-01-29T12:50:58;46.63;;;26.63;;
77051;SDS011;65980;44.898;8.602;2023-01-29T12:54:26;38.40;;;23.00;;
77051;SDS011;65980;44.898;8.602;2023-01-29T13:05:25;45.10;;;24.73;;
77051;SDS011;65980;44.898;8.602;2023-01-29T13:08:50;41.83;;;23.33;;
77051;SDS011;65980;44.898;8.602;2023-01-29T13:16:18;44.20;;;24.75;;
77051;SDS011;65980;44.898;8.602;2023-01-29T13:19:39;41.65;;;23.10;;
77051;SDS011;65980;44.898;8.602;2023-01-29T13:22:51;46.63;;;24.30;;
77051;SDS011;65980;44.898;8.602;2023-01-29T13:25:58;50.88;;;24.45;;
77051;SDS011;65980;44.898;8.602;2023-01-29T13:29:15;45.80;;;24.55;;
77051;SDS011;65980;44.898;8.602;2023-01-29T13:43:00;44.25;;;23.48;;
77051;SDS011;65980;44.898;8.602;2023-01-29T13:46:21;43.97;;;24.40;;
77051;SDS011;65980;44.898;8.602;2023-01-29T13:49:30;45.50;;;24.85;;
77051;SDS011;65980;44.898;8.602;2023-01-29T14:12:42;42.95;;;22.00;;
77051;SDS011;65980;44.898;8.602;2023-01-29T14:17:00;38.95;;;19.80;;
77051;SDS011;65980;44.898;8.602;2023-01-29T14:20:17;36.80;;;19.60;;
77051;SDS011;65980;44.898;8.602;2023-01-29T14:24:29;37.03;;;17.38;;
77051;SDS011;65980;44.898;8.602;2023-01-29T14:33:04;36.20;;;19.45;;
77051;SDS011;65980;44.898;8.602;2023-01-29T17:03:11;37.60;;;19.63;;
77051;SDS011;65980;44.898;8.602;2023-01-29T17:30:06;66.35;;;27.38;;
77051;SDS011;65980;44.898;8.602;2023-01-29T17:40:50;49.28;;;24.90;;
77051;SDS011;65980;44.898;8.602;2023-01-29T17:48:44;50.25;;;25.05;;
77051;SDS011;65980;44.898;8.602;2023-01-29T18:18:22;58.28;;;25.02;;
77051;SDS011;65980;44.898;8.602;2023-01-29T18:22:37;59.90;;;26.30;;
77051;SDS011;65980;44.898;8.602;2023-01-29T19:36:19;57.38;;;23.55;;
77051;SDS011;65980;44.898;8.602;2023-01-29T19:57:53;53.17;;;22.40;;
77051;SDS011;65980;44.898;8.602;2023-01-29T20:06:58;53.38;;;24.08;;
77051;SDS011;65980;44.898;8.602;2023-01-29T20:10:02;60.55;;;26.60;;
77051;SDS011;65980;44.898;8.602;2023-01-29T20:13:36;60.80;;;25.05;;
77051;SDS011;65980;44.898;8.602;2023-01-29T20:25:26;49.03;;;22.02;;
77051;SDS011;65980;44.898;8.602;2023-01-29T20:51:23;40.40;;;18.23;;
77051;SDS011;65980;44.898;8.602;2023-01-29T20:59:47;37.88;;;17.50;;
77051;SDS011;65980;44.898;8.602;2023-01-29T21:02:56;41.20;;;18.23;;
77051;SDS011;65980;44.898;8.602;2023-01-29T21:06:01;44.70;;;18.42;;
77051;SDS011;65980;44.898;8.602;2023-01-29T21:16:47;42.67;;;18.15;;
77051;SDS011;65980;44.898;8.602;2023-01-29T21:19:51;38.60;;;18.27;;
77051;SDS011;65980;44.898;8.602;2023-01-29T21:32:00;43.53;;;18.80;;
77051;SDS011;65980;44.898;8.602;2023-01-29T21:35:04;46.70;;;20.02;;
77051;SDS011;65980;44.898;8.602;2023-01-29T21:39:30;40.97;;;18.50;;
77051;SDS011;65980;44.898;8.602;2023-01-29T21:46:45;38.83;;;18.45;;
77051;SDS011;65980;44.898;8.602;2023-01-29T21:54:09;38.13;;;17.52;;
77051;SDS011;65980;44.898;8.602;2023-01-29T21:57:17;42.28;;;18.92;;
77051;SDS011;65980;44.898;8.602;2023-01-29T22:00:47;40.88;;;17.77;;
77051;SDS011;65980;44.898;8.602;2023-01-29T22:04:36;43.92;;;19.42;;
77051;SDS011;65980;44.898;8.602;2023-01-29T22:15:18;48.92;;;20.30;;
77051;SDS011;65980;44.898;8.602;2023-01-29T22:22:15;46.85;;;19.77;;
77051;SDS011;65980;44.898;8.602;2023-01-29T22:30:49;39.85;;;19.00;;
77051;SDS011;65980;44.898;8.602;2023-01-29T22:37:32;44.83;;;18.35;;
77051;SDS011;65980;44.898;8.602;2023-01-29T22:40:45;39.90;;;18.98;;
77051;SDS011;65980;44.898;8.602;2023-01-29T22:45:03;43.63;;;19.48;;
77051;SDS011;65980;44.898;8.602;2023-01-29T22:49:00;42.47;;;19.33;;
77051;SDS011;65980;44.898;8.602;2023-01-29T22:52:20;47.33;;;19.00;;
77051;SDS011;65980;44.898;8.602;2023-01-29T22:55:38;41.13;;;18.45;;
77051;SDS011;65980;44.898;8.602;2023-01-29T22:58:54;43.45;;;18.10;;
77051;SDS011;65980;44.898;8.602;2023-01-29T23:03:12;40.13;;;18.52;;
77051;SDS011;65980;44.898;8.602;2023-01-29T23:11:25;41.33;;;17.70;;
77051;SDS011;65980;44.898;8.602;2023-01-29T23:22:37;43.80;;;18.58;;
77051;SDS011;65980;44.898;8.602;2023-01-29T23:25:49;44.67;;;19.15;;
77051;SDS011;65980;44.898;8.602;2023-01-29T23:29:33;41.33;;;18.77;;
77051;SDS011;65980;44.898;8.602;2023-01-29T23:33:10;47.45;;;19.00;;
77051;SDS011;65980;44.898;8.602;2023-01-29T23:36:40;42.92;;;18.52;;
77051;SDS011;65980;44.898;8.602;2023-01-29T23:40:10;41.75;;;18.02;;
77051;SDS011;65980;44.898;8.602;2023-01-29T23:43:21;42.20;;;18.58;;
77051;SDS011;65980;44.898;8.602;2023-01-29T23:46:25;43.33;;;18.50;;
77051;SDS011;65980;44.898;8.602;2023-01-29T23:57:59;45.28;;;20.90;;
